Time;durP1;ratioP1;P1;durP2;ratioP2;P2;SDS_P1;SDS_P2;PMS_P1;PMS_P2;Temp;Humidity;BMP_temperature;BMP_pressure;BME280_temperature;BME280_humidity;BME280_pressure;Samples;Min_cycle;Max_cycle;Signal;HPM_P1;HPM_P2
2024/02/07 00:00:04;;;;;;;12.25;6.53;;;;;;;;;;4921207;29;20051;-71
2024/02/07 00:02:33;;;;;;;5.20;4.75;;;;;;;;;;4929113;29;20477;-70
2024/02/07 00:05:00;;;;;;;9.35;6.47;;;;;;;;;;4924248;29;20123;-70
2024/02/07 00:07:26;;;;;;;7.10;5.43;;;;;;;;;;4928516;29;20042;-72
2024/02/07 00:09:53;;;;;;;12.30;7.20;;;;;;;;;;4931745;29;20052;-71
2024/02/07 00:12:20;;;;;;;6.82;5.65;;;;;;;;;;4927750;29;20040;-72
2024/02/07 00:14:46;;;;;;;6.85;6.18;;;;;;;;;;4937104;29;20155;-71
2024/02/07 00:17:12;;;;;;;4.97;4.57;;;;;;;;;;4929712;29;20670;-72
2024/02/07 00:19:38;;;;;;;5.05;4.63;;;;;;;;;;4935353;29;20041;-72
2024/02/07 00:22:05;;;;;;;7.70;4.55;;;;;;;;;;4932441;29;20036;-71
2024/02/07 00:24:32;;;;;;;6.07;5.50;;;;;;;;;;4925819;29;20171;-73
2024/02/07 00:26:58;;;;;;;3.83;3.47;;;;;;;;;;4928837;29;20028;-71
2024/02/07 00:29:24;;;;;;;6.85;5.18;;;;;;;;;;4922837;29;20139;-71
2024/02/07 00:31:50;;;;;;;10.15;6.80;;;;;;;;;;4928330;29;20481;-70
2024/02/07 00:34:16;;;;;;;8.18;7.25;;;;;;;;;;4914989;29;20039;-70
2024/02/07 00:36:42;;;;;;;8.38;7.57;;;;;;;;;;4927804;29;20463;-71
2024/02/07 00:39:07;;;;;;;10.80;9.57;;;;;;;;;;4926776;29;20155;-70
2024/02/07 00:41:33;;;;;;;12.95;10.30;;;;;;;;;;4927844;29;20039;-71
2024/02/07 00:43:59;;;;;;;9.20;7.60;;;;;;;;;;4931740;29;20039;-70
2024/02/07 00:46:25;;;;;;;5.40;4.95;;;;;;;;;;4938188;29;20039;-71
2024/02/07 00:48:51;;;;;;;9.65;8.02;;;;;;;;;;4924860;29;20036;-69
2024/02/07 00:51:17;;;;;;;7.60;6.88;;;;;;;;;;4923287;29;20043;-70
2024/02/07 00:53:42;;;;;;;9.05;7.03;;;;;;;;;;4927145;29;20047;-71
2024/02/07 00:56:08;;;;;;;5.35;4.95;;;;;;;;;;4928160;29;20036;-71
2024/02/07 00:58:35;;;;;;;9.68;7.10;;;;;;;;;;4930478;29;20507;-70
2024/02/07 01:01:00;;;;;;;13.75;9.93;;;;;;;;;;4923498;29;20070;-70
2024/02/07 01:03:26;;;;;;;10.40;8.77;;;;;;;;;;4929621;29;20488;-71
2024/02/07 01:05:52;;;;;;;9.50;8.52;;;;;;;;;;4920961;29;20051;-72
2024/02/07 01:08:18;;;;;;;15.70;10.20;;;;;;;;;;4927823;29;20051;-72
2024/02/07 01:10:45;;;;;;;15.27;8.15;;;;;;;;;;4927836;29;20044;-71
2024/02/07 01:13:11;;;;;;;5.65;5.05;;;;;;;;;;4930806;29;20023;-69
2024/02/07 01:15:37;;;;;;;8.93;7.85;;;;;;;;;;4930616;29;20043;-70
2024/02/07 01:18:03;;;;;;;18.30;11.90;;;;;;;;;;4930164;29;20105;-71
2024/02/07 01:20:28;;;;;;;11.98;9.48;;;;;;;;;;4920937;29;20036;-70
2024/02/07 01:22:54;;;;;;;10.90;8.75;;;;;;;;;;4923141;29;20040;-71
2024/02/07 01:25:20;;;;;;;6.15;5.20;;;;;;;;;;4912873;29;20040;-70
2024/02/07 01:27:46;;;;;;;9.80;7.00;;;;;;;;;;4937653;29;20051;-70
2024/02/07 01:30:12;;;;;;;12.05;8.07;;;;;;;;;;4924728;29;20047;-70
2024/02/07 01:32:43;;;;;;;12.88;8.98;;;;;;;;;;4926291;29;20040;-70
2024/02/07 01:35:10;;;;;;;14.70;8.52;;;;;;;;;;4926466;29;20530;-71
2024/02/07 01:37:38;;;;;;;13.93;7.82;;;;;;;;;;4924083;29;20131;-70
2024/02/07 01:40:06;;;;;;;12.57;3.58;;;;;;;;;;4923097;29;20047;-70
2024/02/07 01:42:32;;;;;;;13.18;7.32;;;;;;;;;;4927426;29;20043;-70
2024/02/07 01:45:20;;;;;;;13.80;8.35;;;;;;;;;;4929507;29;20046;-70
2024/02/07 01:47:46;;;;;;;6.32;5.50;;;;;;;;;;4931454;29;20046;-69
2024/02/07 01:50:11;;;;;;;14.10;9.90;;;;;;;;;;4926511;29;20044;-69
2024/02/07 01:52:39;;;;;;;15.48;9.48;;;;;;;;;;4922975;29;20032;-68
2024/02/07 01:55:05;;;;;;;13.82;7.90;;;;;;;;;;4928151;29;20043;-70
2024/02/07 01:57:32;;;;;;;27.50;7.80;;;;;;;;;;4926169;29;20042;-70
2024/02/07 01:59:58;;;;;;;13.35;7.43;;;;;;;;;;4919801;29;20562;-69
2024/02/07 02:02:25;;;;;;;19.27;9.75;;;;;;;;;;4928575;29;20035;-71
2024/02/07 02:04:51;;;;;;;14.13;9.68;;;;;;;;;;4924595;29;20200;-70
2024/02/07 02:07:18;;;;;;;20.42;11.65;;;;;;;;;;4925080;29;20027;-71
2024/02/07 02:09:43;;;;;;;23.73;12.10;;;;;;;;;;4926006;29;20043;-70
2024/02/07 02:12:09;;;;;;;16.13;8.02;;;;;;;;;;4913527;29;20509;-70
2024/02/07 02:14:35;;;;;;;17.15;6.78;;;;;;;;;;4924820;29;20079;-70
2024/02/07 02:17:02;;;;;;;36.85;13.32;;;;;;;;;;4920499;29;20549;-70
2024/02/07 02:19:28;;;;;;;30.63;11.93;;;;;;;;;;4929719;29;20126;-70
2024/02/07 02:22:12;;;;;;;59.25;15.50;;;;;;;;;;4929317;29;20516;-69
2024/02/07 02:24:47;;;;;;;167.90;19.52;;;;;;;;;;4937072;29;20042;-69
2024/02/07 02:27:13;;;;;;;311.58;23.00;;;;;;;;;;4926650;29;20384;-69
2024/02/07 02:29:42;;;;;;;480.45;31.13;;;;;;;;;;4925871;29;20506;-71
2024/02/07 02:32:08;;;;;;;501.83;34.38;;;;;;;;;;4932478;29;20028;-68
2024/02/07 02:34:34;;;;;;;172.00;16.58;;;;;;;;;;4935522;29;20035;-70
2024/02/07 02:37:00;;;;;;;462.38;37.40;;;;;;;;;;4921057;29;20566;-70
2024/02/07 02:39:27;;;;;;;682.28;47.38;;;;;;;;;;4921904;29;20122;-69
2024/02/07 02:41:53;;;;;;;381.00;28.70;;;;;;;;;;4924505;29;20027;-69
2024/02/07 02:44:19;;;;;;;580.05;44.80;;;;;;;;;;4926285;29;20039;-68
2024/02/07 02:46:45;;;;;;;137.38;18.15;;;;;;;;;;4919000;29;20032;-68
2024/02/07 02:49:13;;;;;;;196.23;18.17;;;;;;;;;;4928718;29;20084;-68
2024/02/07 02:51:39;;;;;;;514.95;36.78;;;;;;;;;;4925929;29;20531;-69
2024/02/07 02:54:06;;;;;;;307.95;24.60;;;;;;;;;;4921739;29;20051;-69
2024/02/07 02:56:33;;;;;;;65.85;12.57;;;;;;;;;;4937923;29;20035;-69
2024/02/07 02:59:05;;;;;;;346.88;22.52;;;;;;;;;;4924164;29;20131;-69
2024/02/07 03:01:32;;;;;;;185.07;17.17;;;;;;;;;;4920914;29;20040;-69
2024/02/07 03:03:58;;;;;;;380.73;29.73;;;;;;;;;;4928336;29;20082;-68
2024/02/07 03:06:32;;;;;;;221.15;26.00;;;;;;;;;;4924169;29;20131;-68
2024/02/07 03:09:19;;;;;;;338.25;28.23;;;;;;;;;;4929862;29;20102;-68
2024/02/07 03:11:45;;;;;;;166.77;22.48;;;;;;;;;;4915380;29;20039;-70
2024/02/07 03:14:11;;;;;;;171.15;20.40;;;;;;;;;;4925526;29;20038;-68
2024/02/07 03:16:46;;;;;;;551.72;38.80;;;;;;;;;;4933189;29;20039;-68
2024/02/07 03:19:12;;;;;;;349.83;25.73;;;;;;;;;;4927499;29;20582;-69
2024/02/07 03:21:38;;;;;;;94.47;17.67;;;;;;;;;;4918798;29;20048;-68
2024/02/07 03:24:04;;;;;;;203.57;20.42;;;;;;;;;;4927587;29;20075;-68
2024/02/07 03:26:30;;;;;;;129.90;14.85;;;;;;;;;;4920900;29;20036;-68
2024/02/07 03:28:56;;;;;;;84.10;10.73;;;;;;;;;;4934547;29;20396;-69
2024/02/07 03:31:22;;;;;;;86.03;10.27;;;;;;;;;;4919617;29;20514;-67
2024/02/07 03:33:48;;;;;;;113.90;14.13;;;;;;;;;;4927325;29;20042;-68
2024/02/07 03:36:15;;;;;;;91.70;11.88;;;;;;;;;;4922572;29;20032;-69
2024/02/07 03:38:41;;;;;;;21.23;9.90;;;;;;;;;;4925327;29;20047;-67
2024/02/07 03:41:09;;;;;;;49.63;11.63;;;;;;;;;;4924806;29;20036;-69
2024/02/07 03:43:35;;;;;;;24.55;5.85;;;;;;;;;;4921960;29;20534;-69
2024/02/07 03:46:05;;;;;;;44.85;9.93;;;;;;;;;;4920019;29;20119;-67
2024/02/07 03:48:33;;;;;;;84.03;15.10;;;;;;;;;;4928181;29;20396;-68
2024/02/07 03:50:58;;;;;;;75.82;14.60;;;;;;;;;;4928090;29;20052;-68
2024/02/07 03:53:25;;;;;;;89.95;13.00;;;;;;;;;;4927287;29;20032;-68
2024/02/07 03:55:52;;;;;;;99.43;15.10;;;;;;;;;;4928702;29;20060;-68
2024/02/07 03:58:19;;;;;;;125.25;12.45;;;;;;;;;;4926725;29;21392;-68
2024/02/07 04:00:47;;;;;;;73.47;18.27;;;;;;;;;;4923187;29;20146;-67
2024/02/07 04:03:13;;;;;;;155.95;21.88;;;;;;;;;;4927793;29;20451;-68
2024/02/07 04:05:39;;;;;;;101.47;16.65;;;;;;;;;;4928346;29;20090;-67
2024/02/07 04:08:05;;;;;;;141.13;18.67;;;;;;;;;;4908758;29;20034;-68
2024/02/07 04:10:41;;;;;;;29.20;6.88;;;;;;;;;;4930937;29;20422;-68
2024/02/07 05:15:55;;;;;;;10.05;6.63;;;;;;;;;;4927091;29;20039;-68
2024/02/07 05:18:20;;;;;;;9.48;6.70;;;;;;;;;;4907714;29;20051;-69
2024/02/07 05:20:48;;;;;;;7.65;4.40;;;;;;;;;;4923654;29;20503;-72
2024/02/07 05:23:16;;;;;;;5.43;4.90;;;;;;;;;;4930028;29;20034;-69
2024/02/07 05:25:44;;;;;;;11.70;7.47;;;;;;;;;;4911875;29;20486;-67
2024/02/07 05:28:10;;;;;;;12.88;9.25;;;;;;;;;;4921977;29;20182;-67
2024/02/07 05:30:36;;;;;;;7.00;5.50;;;;;;;;;;4930506;29;20047;-69
2024/02/07 05:33:02;;;;;;;10.13;7.40;;;;;;;;;;4924547;29;20459;-68
2024/02/07 05:35:28;;;;;;;5.32;4.72;;;;;;;;;;4909979;29;20043;-68
2024/02/07 05:37:54;;;;;;;7.80;6.72;;;;;;;;;;4922108;29;20400;-68
2024/02/07 05:40:20;;;;;;;13.25;7.47;;;;;;;;;;4930353;29;20031;-67
2024/02/07 05:42:45;;;;;;;13.80;8.20;;;;;;;;;;4924926;29;20036;-68
2024/02/07 05:45:11;;;;;;;10.27;5.40;;;;;;;;;;4924559;29;20043;-69
2024/02/07 05:47:37;;;;;;;3.35;3.08;;;;;;;;;;4936277;29;20028;-68
2024/02/07 05:50:03;;;;;;;5.40;4.88;;;;;;;;;;4928629;29;20086;-69
2024/02/07 05:52:29;;;;;;;18.55;8.40;;;;;;;;;;4919870;29;20582;-70
2024/02/07 05:54:55;;;;;;;9.15;5.35;;;;;;;;;;4922603;29;20031;-70
2024/02/07 05:57:21;;;;;;;13.55;7.28;;;;;;;;;;4919951;29;20047;-69
2024/02/07 05:59:46;;;;;;;5.70;5.15;;;;;;;;;;4925120;29;20050;-70
2024/02/07 06:02:12;;;;;;;4.20;3.38;;;;;;;;;;4926053;29;20538;-70
2024/02/07 06:04:39;;;;;;;5.40;4.75;;;;;;;;;;4924492;29;20039;-70
2024/02/07 06:07:08;;;;;;;11.25;8.75;;;;;;;;;;4925682;29;20593;-69
2024/02/07 06:09:34;;;;;;;8.00;6.18;;;;;;;;;;4925663;29;20054;-70
2024/02/07 06:12:01;;;;;;;18.05;7.50;;;;;;;;;;4923254;29;20035;-69
2024/02/07 06:14:27;;;;;;;7.05;5.78;;;;;;;;;;4925739;29;20047;-70
2024/02/07 06:16:53;;;;;;;10.60;8.65;;;;;;;;;;4923945;29;20052;-70
2024/02/07 06:19:19;;;;;;;5.55;5.05;;;;;;;;;;4927073;29;20039;-69
2024/02/07 06:21:45;;;;;;;17.52;8.00;;;;;;;;;;4921360;29;20122;-69
2024/02/07 06:24:10;;;;;;;14.40;8.00;;;;;;;;;;4924074;29;20099;-68
2024/02/07 06:26:36;;;;;;;13.80;8.43;;;;;;;;;;4923318;29;20143;-68
2024/02/07 06:29:02;;;;;;;9.63;7.63;;;;;;;;;;4925625;29;20038;-69
2024/02/07 06:31:27;;;;;;;13.25;7.80;;;;;;;;;;4922082;29;20118;-68
2024/02/07 06:33:53;;;;;;;7.22;6.38;;;;;;;;;;4921041;29;20035;-70
2024/02/07 06:36:19;;;;;;;5.65;5.07;;;;;;;;;;4921851;29;20118;-68
2024/02/07 06:38:45;;;;;;;13.02;8.95;;;;;;;;;;4922277;29;20502;-68
2024/02/07 06:41:11;;;;;;;10.13;7.88;;;;;;;;;;4921712;29;20031;-68
2024/02/07 06:43:36;;;;;;;7.93;5.72;;;;;;;;;;4924757;29;20138;-69
2024/02/07 06:46:03;;;;;;;6.53;5.53;;;;;;;;;;4905655;29;20394;-69
2024/02/07 06:48:29;;;;;;;5.55;5.03;;;;;;;;;;4921248;29;20126;-69
2024/02/07 06:50:54;;;;;;;7.70;6.63;;;;;;;;;;4920837;29;20059;-69
2024/02/07 06:53:20;;;;;;;8.95;5.60;;;;;;;;;;4925627;29;20031;-69
2024/02/07 06:55:47;;;;;;;21.05;8.20;;;;;;;;;;4925220;29;20028;-70
2024/02/07 06:58:13;;;;;;;6.50;5.70;;;;;;;;;;4920760;29;20036;-70
2024/02/07 07:00:39;;;;;;;10.95;7.78;;;;;;;;;;4922417;29;20462;-68
2024/02/07 07:03:06;;;;;;;8.27;7.47;;;;;;;;;;4924244;29;20031;-70
2024/02/07 07:05:31;;;;;;;8.77;7.63;;;;;;;;;;4924019;29;20068;-70
2024/02/07 07:07:57;;;;;;;13.73;9.23;;;;;;;;;;4919592;29;20127;-68
2024/02/07 07:10:42;;;;;;;9.98;7.45;;;;;;;;;;4921385;29;20051;-69
2024/02/07 07:13:08;;;;;;;9.02;7.72;;;;;;;;;;4925098;29;20025;-70
2024/02/07 07:15:34;;;;;;;15.40;8.00;;;;;;;;;;4920062;29;20028;-70
2024/02/07 07:18:00;;;;;;;13.60;9.38;;;;;;;;;;4911701;29;20154;-69
2024/02/07 07:20:44;;;;;;;8.60;7.60;;;;;;;;;;4931526;29;20582;-70
2024/02/07 07:23:10;;;;;;;22.52;11.82;;;;;;;;;;4932686;29;20042;-68
2024/02/07 07:25:36;;;;;;;8.43;7.10;;;;;;;;;;4918549;29;20044;-70
2024/02/07 07:28:02;;;;;;;17.48;8.18;;;;;;;;;;4915780;29;20082;-69
2024/02/07 07:30:28;;;;;;;10.52;7.65;;;;;;;;;;4915514;29;20044;-71
2024/02/07 07:32:53;;;;;;;10.18;7.50;;;;;;;;;;4915276;29;20511;-71
2024/02/07 07:35:19;;;;;;;8.95;6.80;;;;;;;;;;4925010;29;20043;-71
2024/02/07 07:37:45;;;;;;;13.50;8.77;;;;;;;;;;4932852;29;20040;-70
2024/02/07 07:40:11;;;;;;;13.23;7.25;;;;;;;;;;4930944;29;20194;-70
2024/02/07 07:42:37;;;;;;;16.55;9.30;;;;;;;;;;4930380;29;20027;-69
2024/02/07 07:45:03;;;;;;;23.08;11.63;;;;;;;;;;4928910;29;20578;-70
2024/02/07 07:47:31;;;;;;;6.85;6.00;;;;;;;;;;4925046;29;20034;-71
2024/02/07 07:49:57;;;;;;;18.13;11.07;;;;;;;;;;4923763;29;20043;-70
2024/02/07 07:52:22;;;;;;;11.40;8.63;;;;;;;;;;4923319;29;20063;-70
2024/02/07 07:54:48;;;;;;;42.38;14.93;;;;;;;;;;4921921;29;20035;-68
2024/02/07 07:57:14;;;;;;;19.30;8.77;;;;;;;;;;4921803;29;20400;-69
2024/02/07 07:59:40;;;;;;;9.52;8.63;;;;;;;;;;4923635;29;20032;-68
2024/02/07 08:02:06;;;;;;;20.58;11.70;;;;;;;;;;4927840;29;20031;-70
2024/02/07 08:04:32;;;;;;;28.98;13.57;;;;;;;;;;4925039;29;20070;-70
2024/02/07 08:06:58;;;;;;;38.35;15.15;;;;;;;;;;4926133;29;20550;-69
2024/02/07 08:09:24;;;;;;;29.75;13.75;;;;;;;;;;4923353;29;20043;-69
2024/02/07 08:11:49;;;;;;;22.23;12.75;;;;;;;;;;4928758;29;20035;-69
2024/02/07 08:14:15;;;;;;;22.08;10.30;;;;;;;;;;4934054;29;20051;-69
2024/02/07 08:16:43;;;;;;;12.52;7.50;;;;;;;;;;4927880;29;20513;-70
2024/02/07 08:19:11;;;;;;;15.73;9.07;;;;;;;;;;4932773;29;20031;-71
2024/02/07 08:21:37;;;;;;;10.70;8.35;;;;;;;;;;4936223;29;20091;-69
2024/02/07 08:24:03;;;;;;;11.50;7.85;;;;;;;;;;4939932;29;20458;-72
2024/02/07 08:26:29;;;;;;;16.75;9.15;;;;;;;;;;4935965;29;20085;-70
2024/02/07 08:28:54;;;;;;;14.10;9.45;;;;;;;;;;4934624;29;20502;-70
2024/02/07 08:31:21;;;;;;;10.48;8.10;;;;;;;;;;4934010;29;20123;-70
2024/02/07 08:33:47;;;;;;;23.13;12.63;;;;;;;;;;4932688;29;20391;-69
2024/02/07 08:36:13;;;;;;;29.92;12.80;;;;;;;;;;4933419;29;20039;-70
2024/02/07 08:38:38;;;;;;;15.43;8.40;;;;;;;;;;4933395;29;20063;-69
2024/02/07 08:41:04;;;;;;;16.13;10.35;;;;;;;;;;4931303;29;20075;-69
2024/02/07 08:43:30;;;;;;;10.77;6.22;;;;;;;;;;4932826;29;20122;-69
2024/02/07 08:45:56;;;;;;;15.60;10.57;;;;;;;;;;4932251;29;20418;-68
2024/02/07 08:48:21;;;;;;;7.88;4.78;;;;;;;;;;4933488;29;20104;-69
2024/02/07 08:50:47;;;;;;;8.77;6.75;;;;;;;;;;4933299;29;20055;-70
2024/02/07 08:53:13;;;;;;;18.83;10.32;;;;;;;;;;4933480;29;20043;-69
2024/02/07 08:55:39;;;;;;;11.30;8.13;;;;;;;;;;4933615;29;20039;-70
2024/02/07 08:58:04;;;;;;;12.38;8.82;;;;;;;;;;4932119;29;20063;-69
2024/02/07 09:00:49;;;;;;;24.58;12.93;;;;;;;;;;4932920;29;20036;-70
2024/02/07 09:03:15;;;;;;;8.55;6.70;;;;;;;;;;4933092;29;20419;-70
2024/02/07 09:05:42;;;;;;;16.27;8.00;;;;;;;;;;4932963;29;20035;-70
2024/02/07 09:08:07;;;;;;;17.65;9.57;;;;;;;;;;4933176;29;20462;-70
2024/02/07 09:10:34;;;;;;;10.02;8.27;;;;;;;;;;4932955;28;20052;-70
2024/02/07 09:13:00;;;;;;;13.93;6.78;;;;;;;;;;4932754;29;20545;-71
2024/02/07 09:15:26;;;;;;;14.07;8.38;;;;;;;;;;4932882;29;20035;-70
2024/02/07 09:17:52;;;;;;;10.05;6.22;;;;;;;;;;4931158;29;20052;-70
2024/02/07 09:20:18;;;;;;;11.57;6.30;;;;;;;;;;4932852;29;20040;-71
2024/02/07 09:22:43;;;;;;;23.77;9.43;;;;;;;;;;4931081;29;20167;-71
2024/02/07 09:25:09;;;;;;;13.32;9.02;;;;;;;;;;4931563;29;20129;-70
2024/02/07 09:27:36;;;;;;;13.05;8.25;;;;;;;;;;4932867;29;20043;-70
2024/02/07 09:30:02;;;;;;;12.75;7.63;;;;;;;;;;4932889;29;20604;-70
2024/02/07 09:32:30;;;;;;;13.20;7.05;;;;;;;;;;4932556;29;20032;-69
2024/02/07 09:34:56;;;;;;;17.90;10.68;;;;;;;;;;4932250;29;20047;-70
2024/02/07 09:37:22;;;;;;;20.45;11.52;;;;;;;;;;4932289;29;20071;-70
2024/02/07 09:40:07;;;;;;;19.20;8.68;;;;;;;;;;4931164;29;20043;-69
2024/02/07 09:42:37;;;;;;;13.75;8.32;;;;;;;;;;4932258;29;20145;-70
2024/02/07 09:45:03;;;;;;;10.77;7.30;;;;;;;;;;4930522;29;20731;-70
2024/02/07 09:47:31;;;;;;;16.80;8.90;;;;;;;;;;4930667;29;20042;-69
2024/02/07 09:49:59;;;;;;;9.40;7.15;;;;;;;;;;4931678;28;20518;-70
2024/02/07 09:52:25;;;;;;;11.63;7.82;;;;;;;;;;4931539;29;20454;-70
2024/02/07 09:54:54;;;;;;;15.70;9.10;;;;;;;;;;4931736;29;20050;-71
2024/02/07 09:57:20;;;;;;;11.50;9.73;;;;;;;;;;4930686;29;20070;-69
2024/02/07 09:59:47;;;;;;;14.52;9.85;;;;;;;;;;4930694;29;20098;-70
2024/02/07 10:02:16;;;;;;;23.45;13.23;;;;;;;;;;4930093;29;20059;-71
2024/02/07 10:04:44;;;;;;;12.18;9.75;;;;;;;;;;4932270;29;20035;-70
2024/02/07 10:07:10;;;;;;;15.00;9.93;;;;;;;;;;4932217;29;20039;-70
2024/02/07 10:09:37;;;;;;;25.85;12.75;;;;;;;;;;4914975;29;20047;-69
2024/02/07 10:12:03;;;;;;;19.65;10.73;;;;;;;;;;4930143;29;20155;-70
2024/02/07 10:14:29;;;;;;;22.90;12.63;;;;;;;;;;4914614;29;20028;-71
2024/02/07 10:16:55;;;;;;;24.17;14.57;;;;;;;;;;4931073;29;20051;-71
2024/02/07 10:19:20;;;;;;;26.08;11.38;;;;;;;;;;4930318;29;20563;-70
2024/02/07 10:21:46;;;;;;;21.02;11.45;;;;;;;;;;4931430;29;20047;-71
2024/02/07 10:24:12;;;;;;;17.70;9.07;;;;;;;;;;4931553;29;20380;-70
2024/02/07 10:26:38;;;;;;;21.10;13.77;;;;;;;;;;4931367;29;20040;-70
2024/02/07 10:29:05;;;;;;;17.10;12.57;;;;;;;;;;4931229;29;20414;-71
2024/02/07 10:31:31;;;;;;;16.38;10.35;;;;;;;;;;4931293;29;20036;-70
2024/02/07 10:33:58;;;;;;;20.35;11.13;;;;;;;;;;4931063;29;20042;-71
2024/02/07 10:36:24;;;;;;;18.75;10.50;;;;;;;;;;4929968;29;20047;-71
2024/02/07 10:38:51;;;;;;;16.35;12.32;;;;;;;;;;4931167;29;20102;-69
2024/02/07 10:41:17;;;;;;;17.00;12.10;;;;;;;;;;4931247;29;20098;-70
2024/02/07 10:43:43;;;;;;;15.80;10.68;;;;;;;;;;4929951;29;20032;-70
2024/02/07 10:46:16;;;;;;;17.63;13.20;;;;;;;;;;4930959;29;20039;-71
2024/02/07 10:48:42;;;;;;;15.00;13.13;;;;;;;;;;4931260;29;20047;-71
2024/02/07 10:51:08;;;;;;;13.98;11.40;;;;;;;;;;4930942;29;20048;-70
2024/02/07 10:53:34;;;;;;;16.02;13.43;;;;;;;;;;4929885;29;20149;-70
2024/02/07 10:56:00;;;;;;;25.52;16.73;;;;;;;;;;4916958;29;20046;-71
2024/02/07 10:58:26;;;;;;;19.40;12.85;;;;;;;;;;4936141;29;20039;-70
2024/02/07 11:00:52;;;;;;;16.42;8.63;;;;;;;;;;4937064;28;20491;-71
2024/02/07 11:03:19;;;;;;;22.33;12.32;;;;;;;;;;4937357;29;20024;-70
2024/02/07 11:05:45;;;;;;;17.95;12.80;;;;;;;;;;4937647;29;20047;-71
2024/02/07 11:08:11;;;;;;;10.73;9.32;;;;;;;;;;4936926;29;20042;-70
2024/02/07 11:10:37;;;;;;;14.48;12.98;;;;;;;;;;4938875;29;20047;-70
2024/02/07 11:13:04;;;;;;;14.95;10.10;;;;;;;;;;4943130;29;20035;-70
2024/02/07 11:15:30;;;;;;;11.27;10.18;;;;;;;;;;4944352;29;20044;-70
2024/02/07 11:17:56;;;;;;;11.63;10.43;;;;;;;;;;4943402;29;20518;-70
2024/02/07 11:20:21;;;;;;;18.70;14.82;;;;;;;;;;4940387;29;20571;-69
2024/02/07 11:22:48;;;;;;;17.63;13.15;;;;;;;;;;4937547;29;20044;-69
2024/02/07 11:25:18;;;;;;;12.43;9.88;;;;;;;;;;4937299;29;20028;-71
2024/02/07 11:27:44;;;;;;;9.20;7.03;;;;;;;;;;4937337;29;20071;-70
2024/02/07 11:30:10;;;;;;;18.42;10.77;;;;;;;;;;4937118;29;20083;-70
2024/02/07 11:32:38;;;;;;;17.58;11.07;;;;;;;;;;4935948;29;20120;-70
2024/02/07 11:35:06;;;;;;;10.00;7.85;;;;;;;;;;4937149;29;20126;-71
2024/02/07 11:37:33;;;;;;;11.70;8.73;;;;;;;;;;4920008;29;20040;-70
2024/02/07 11:40:03;;;;;;;6.90;6.10;;;;;;;;;;4935597;29;20602;-70
2024/02/07 11:42:34;;;;;;;8.52;7.55;;;;;;;;;;4935938;29;20040;-71
2024/02/07 11:45:02;;;;;;;7.47;6.65;;;;;;;;;;4937255;29;20538;-71
2024/02/07 11:47:33;;;;;;;8.13;7.07;;;;;;;;;;4936268;29;20055;-70
2024/02/07 11:50:00;;;;;;;11.18;6.65;;;;;;;;;;4935673;29;20713;-70
2024/02/07 11:52:29;;;;;;;10.95;7.82;;;;;;;;;;4936858;29;20074;-70
2024/02/07 11:55:07;;;;;;;9.27;6.60;;;;;;;;;;4936657;29;20573;-70
2024/02/07 11:57:36;;;;;;;11.77;8.77;;;;;;;;;;4935801;29;20032;-71
2024/02/07 12:00:02;;;;;;;8.13;6.43;;;;;;;;;;4936509;29;20139;-70
2024/02/07 12:02:36;;;;;;;11.98;8.73;;;;;;;;;;4936814;29;20410;-70
2024/02/07 12:05:03;;;;;;;7.38;5.82;;;;;;;;;;4935377;29;20105;-70
2024/02/07 12:07:30;;;;;;;20.92;12.32;;;;;;;;;;4933409;29;20549;-70
2024/02/07 12:09:56;;;;;;;11.43;8.48;;;;;;;;;;4933991;29;20047;-70
2024/02/07 12:12:21;;;;;;;7.43;5.90;;;;;;;;;;4932507;29;20608;-70
2024/02/07 12:14:50;;;;;;;8.65;6.45;;;;;;;;;;4933777;29;20036;-70
2024/02/07 12:17:16;;;;;;;6.53;5.65;;;;;;;;;;4933347;29;20086;-70
2024/02/07 12:19:42;;;;;;;6.78;5.15;;;;;;;;;;4932617;29;20122;-70
2024/02/07 12:22:13;;;;;;;5.47;4.63;;;;;;;;;;4932153;29;20024;-70
2024/02/07 12:24:41;;;;;;;8.45;5.53;;;;;;;;;;4933867;29;20048;-71
2024/02/07 12:27:13;;;;;;;7.75;5.43;;;;;;;;;;4916631;29;20028;-72
2024/02/07 12:29:40;;;;;;;7.03;5.07;;;;;;;;;;4933599;29;20056;-71
2024/02/07 12:32:06;;;;;;;25.63;10.90;;;;;;;;;;4933322;29;20415;-70
2024/02/07 12:34:32;;;;;;;5.30;4.82;;;;;;;;;;4932261;29;20154;-69
2024/02/07 12:36:58;;;;;;;12.45;6.65;;;;;;;;;;4932026;29;20136;-70
2024/02/07 12:39:24;;;;;;;10.20;6.05;;;;;;;;;;4933373;29;20035;-71
2024/02/07 12:41:49;;;;;;;15.73;9.50;;;;;;;;;;4933418;29;20044;-70
2024/02/07 12:44:15;;;;;;;9.45;6.88;;;;;;;;;;4900451;29;20062;-71
2024/02/07 12:46:42;;;;;;;15.15;9.93;;;;;;;;;;4932907;29;20363;-70
2024/02/07 12:49:08;;;;;;;14.88;9.48;;;;;;;;;;4932728;29;20044;-71
2024/02/07 12:51:34;;;;;;;26.55;16.80;;;;;;;;;;4933015;29;20031;-71
2024/02/07 12:54:00;;;;;;;16.45;11.10;;;;;;;;;;4932921;29;20059;-70
2024/02/07 12:56:26;;;;;;;20.98;13.98;;;;;;;;;;4931926;29;20195;-70
2024/02/07 12:58:51;;;;;;;26.40;15.70;;;;;;;;;;4933120;29;20124;-70
2024/02/07 13:04:05;;;;;;;26.45;17.50;;;;;;;;;;4932669;29;20055;-70
2024/02/07 13:06:31;;;;;;;14.52;10.45;;;;;;;;;;4931572;29;20566;-69
2024/02/07 13:08:57;;;;;;;16.13;10.25;;;;;;;;;;4915699;29;20059;-70
2024/02/07 13:11:25;;;;;;;7.93;6.10;;;;;;;;;;4932722;29;20079;-71
2024/02/07 13:13:53;;;;;;;12.35;7.65;;;;;;;;;;4932443;29;20043;-69
2024/02/07 13:16:22;;;;;;;10.32;7.85;;;;;;;;;;4932552;29;20103;-69
2024/02/07 13:18:48;;;;;;;14.38;11.18;;;;;;;;;;4931039;29;20051;-70
2024/02/07 13:21:14;;;;;;;9.52;6.75;;;;;;;;;;4932404;29;20051;-70
2024/02/07 13:23:39;;;;;;;10.57;9.35;;;;;;;;;;4932610;29;20149;-71
2024/02/07 13:26:08;;;;;;;5.75;5.15;;;;;;;;;;4931488;29;20095;-69
2024/02/07 13:28:36;;;;;;;9.52;7.60;;;;;;;;;;4932000;29;20130;-70
2024/02/07 13:31:03;;;;;;;7.97;6.20;;;;;;;;;;4932276;29;20051;-70
2024/02/07 13:33:29;;;;;;;7.28;6.05;;;;;;;;;;4931021;29;20087;-70
2024/02/07 13:35:55;;;;;;;16.05;11.02;;;;;;;;;;4915560;29;20468;-69
2024/02/07 13:38:21;;;;;;;7.28;6.47;;;;;;;;;;4915098;29;20036;-70
2024/02/07 13:41:05;;;;;;;9.73;7.60;;;;;;;;;;4932113;29;20490;-69
2024/02/07 13:43:31;;;;;;;9.35;7.30;;;;;;;;;;4915227;29;20118;-70
2024/02/07 13:45:58;;;;;;;19.05;6.57;;;;;;;;;;4915205;29;20038;-69
2024/02/07 13:48:28;;;;;;;9.07;8.18;;;;;;;;;;4931631;28;20487;-69
2024/02/07 13:50:54;;;;;;;6.65;5.18;;;;;;;;;;4932297;29;20048;-69
2024/02/07 13:53:19;;;;;;;8.00;7.18;;;;;;;;;;4931859;29;20067;-70
2024/02/07 13:55:45;;;;;;;12.52;10.57;;;;;;;;;;4931821;29;20577;-69
2024/02/07 13:58:11;;;;;;;9.88;6.13;;;;;;;;;;4930240;29;20035;-70
2024/02/07 14:00:37;;;;;;;6.43;5.85;;;;;;;;;;4925133;29;20073;-70
2024/02/07 14:03:03;;;;;;;4.45;4.07;;;;;;;;;;4926018;29;20039;-69
2024/02/07 14:05:29;;;;;;;6.95;6.28;;;;;;;;;;4928992;29;20054;-70
2024/02/07 14:07:55;;;;;;;9.15;7.32;;;;;;;;;;4912900;29;20042;-70
2024/02/07 14:10:21;;;;;;;6.53;4.93;;;;;;;;;;4930361;29;20468;-70
2024/02/07 14:12:47;;;;;;;7.97;6.43;;;;;;;;;;4932913;29;20597;-71
2024/02/07 14:15:13;;;;;;;9.13;6.20;;;;;;;;;;4932259;29;20042;-70
2024/02/07 14:17:40;;;;;;;4.88;4.38;;;;;;;;;;4930244;29;20114;-71
2024/02/07 14:20:06;;;;;;;8.32;6.07;;;;;;;;;;4931473;29;20047;-70
2024/02/07 14:22:51;;;;;;;8.52;5.10;;;;;;;;;;4931625;29;20518;-70
2024/02/07 14:25:17;;;;;;;9.70;4.60;;;;;;;;;;4931454;29;20574;-70
2024/02/07 14:27:44;;;;;;;5.63;5.05;;;;;;;;;;4931362;29;20066;-70
2024/02/07 14:30:10;;;;;;;9.45;5.97;;;;;;;;;;4929130;29;20102;-71
2024/02/07 14:32:36;;;;;;;5.03;4.53;;;;;;;;;;4931294;29;20495;-71
2024/02/07 14:35:02;;;;;;;12.35;8.70;;;;;;;;;;4929868;29;20050;-70
2024/02/07 14:37:36;;;;;;;8.00;6.00;;;;;;;;;;4931381;29;20040;-70
2024/02/07 14:40:02;;;;;;;6.90;5.38;;;;;;;;;;4929923;29;20130;-70
2024/02/07 14:42:31;;;;;;;7.82;5.03;;;;;;;;;;4929854;29;20586;-71
2024/02/07 14:44:57;;;;;;;10.88;6.95;;;;;;;;;;4930035;29;20075;-71
2024/02/07 14:47:22;;;;;;;11.93;7.72;;;;;;;;;;4929580;29;20075;-71
2024/02/07 14:49:48;;;;;;;9.18;7.43;;;;;;;;;;4930038;29;20074;-71
2024/02/07 14:52:32;;;;;;;5.68;5.18;;;;;;;;;;4931290;29;20458;-71
2024/02/07 14:55:00;;;;;;;5.07;4.63;;;;;;;;;;4931200;29;20039;-71
2024/02/07 14:57:30;;;;;;;10.13;5.95;;;;;;;;;;4930720;29;20036;-70
2024/02/07 14:59:56;;;;;;;5.60;5.10;;;;;;;;;;4929973;29;20039;-70
2024/02/07 15:02:22;;;;;;;9.40;7.32;;;;;;;;;;4929393;29;20044;-70
2024/02/07 15:04:48;;;;;;;6.68;6.05;;;;;;;;;;4926168;29;20079;-71
2024/02/07 15:07:14;;;;;;;7.35;5.88;;;;;;;;;;4927884;29;20031;-70
2024/02/07 15:09:40;;;;;;;9.43;7.05;;;;;;;;;;4928832;29;20063;-70
2024/02/07 15:12:06;;;;;;;4.80;4.40;;;;;;;;;;4910485;29;20094;-70
2024/02/07 15:14:32;;;;;;;7.70;6.35;;;;;;;;;;4927268;29;20062;-70
2024/02/07 15:16:57;;;;;;;14.90;9.80;;;;;;;;;;4926427;29;20516;-70
2024/02/07 15:19:23;;;;;;;5.57;5.07;;;;;;;;;;4926809;29;20063;-69
2024/02/07 15:21:49;;;;;;;13.35;11.45;;;;;;;;;;4927072;29;20044;-70
2024/02/07 15:24:15;;;;;;;7.78;6.80;;;;;;;;;;4928774;29;20031;-69
2024/02/07 15:26:40;;;;;;;8.93;7.95;;;;;;;;;;4911272;29;20087;-70
2024/02/07 15:29:06;;;;;;;6.18;4.82;;;;;;;;;;4927282;29;20055;-70
2024/02/07 15:31:32;;;;;;;4.03;3.65;;;;;;;;;;4927210;29;20048;-70